Time,TemperatureF,DewpointF,PressureIn,WindDirection,WindDirectionDegrees,WindSpeedMPH,WindSpeedGustMPH,Humidity,HourlyPrecipIn,Conditions,Clouds,dailyrainin,SoftwareType,DateUTC
2013-01-27 00:01:00,48.0,47.0,-100.00,SSW,211,7.0,11.0,98,-99.99,,,-99.99,,2013-01-27 08:01:00,
2013-01-27 00:11:00,48.0,47.0,-100.00,SW,227,8.0,12.0,98,-99.99,,,-99.99,,2013-01-27 08:11:00,
2013-01-27 00:21:00,48.0,47.0,-100.00,SW,224,8.0,13.0,98,-99.99,,,-99.99,,2013-01-27 08:21:00,
2013-01-27 00:31:00,48.0,47.0,-100.00,SW,228,8.0,14.0,98,-99.99,,,-99.99,,2013-01-27 08:31:00,
2013-01-27 00:41:00,48.0,47.0,-100.00,SW,222,7.0,14.0,98,-99.99,,,-99.99,,2013-01-27 08:41:00,
2013-01-27 00:52:00,48.0,47.0,-100.00,SW,232,7.0,11.0,98,-99.99,,,-99.99,,2013-01-27 08:52:00,
2013-01-27 01:02:00,48.0,47.0,-100.00,SW,226,7.0,10.0,98,-99.99,,,-99.99,,2013-01-27 09:02:00,
2013-01-27 01:11:00,48.0,47.0,-100.00,WSW,248,7.0,12.0,98,-99.99,,,-99.99,,2013-01-27 09:11:00,
2013-01-27 01:21:00,48.0,47.0,-100.00,WSW,245,8.0,14.0,98,-99.99,,,-99.99,,2013-01-27 09:21:00,
2013-01-27 01:31:00,48.0,47.0,-100.00,WSW,237,7.0,14.0,98,-99.99,,,-99.99,,2013-01-27 09:31:00,
2013-01-27 01:41:00,48.0,47.0,-100.00,SW,222,9.0,14.0,98,-99.99,,,-99.99,,2013-01-27 09:41:00,
2013-01-27 01:51:00,48.0,47.0,-100.00,SW,225,8.0,12.0,98,-99.99,,,-99.99,,2013-01-27 09:51:00,
2013-01-27 02:01:00,48.0,47.0,-100.00,SW,229,6.0,13.0,98,-99.99,,,-99.99,,2013-01-27 10:01:00,
2013-01-27 02:11:00,48.0,47.0,-100.00,SW,235,7.0,14.0,98,-99.99,,,-99.99,,2013-01-27 10:11:00,
2013-01-27 02:21:00,48.0,47.0,-100.00,SW,228,7.0,10.0,98,-99.99,,,-99.99,,2013-01-27 10:21:00,
2013-01-27 02:31:00,48.0,47.0,-100.00,WSW,237,7.0,10.0,98,-99.99,,,-99.99,,2013-01-27 10:31:00,
2013-01-27 02:41:00,48.0,47.0,-100.00,WSW,247,6.0,11.0,98,-99.99,,,-99.99,,2013-01-27 10:41:00,
2013-01-27 02:51:00,48.0,47.0,-100.00,WSW,245,7.0,12.0,98,-99.99,,,-99.99,,2013-01-27 10:51:00,
2013-01-27 03:01:00,48.0,47.0,-100.00,SW,236,7.0,12.0,98,-99.99,,,-99.99,,2013-01-27 11:01:00,
2013-01-27 03:11:00,48.0,47.0,-100.00,WSW,240,7.0,12.0,98,-99.99,,,-99.99,,2013-01-27 11:11:00,
2013-01-27 03:21:00,48.0,47.0,-100.00,WSW,237,6.0,10.0,98,-99.99,,,-99.99,,2013-01-27 11:21:00,
2013-01-27 03:32:00,48.0,47.0,-100.00,WSW,250,6.0,9.0,98,-99.99,,,-99.99,,2013-01-27 11:32:00,
2013-01-27 03:42:00,48.0,47.0,-100.00,SW,235,5.0,8.0,98,-99.99,,,-99.99,,2013-01-27 11:42:00,
2013-01-27 03:52:00,48.0,47.0,-100.00,SW,226,7.0,11.0,98,-99.99,,,-99.99,,2013-01-27 11:52:00,
2013-01-27 04:02:00,47.0,46.0,-100.00,SW,224,7.0,12.0,98,-99.99,,,-99.99,,2013-01-27 12:02:00,
2013-01-27 04:11:00,47.0,46.0,-100.00,SW,219,9.0,15.0,98,-99.99,,,-99.99,,2013-01-27 12:11:00,
2013-01-27 04:21:00,47.0,46.0,-100.00,SW,224,9.0,14.0,98,-99.99,,,-99.99,,2013-01-27 12:21:00,
2013-01-27 04:32:00,47.0,46.0,-100.00,SW,225,8.0,11.0,98,-99.99,,,-99.99,,2013-01-27 12:32:00,
2013-01-27 04:42:00,47.0,46.0,-100.00,SW,225,8.0,11.0,98,-99.99,,,-99.99,,2013-01-27 12:42:00,
2013-01-27 04:52:00,47.0,46.0,-100.00,SW,225,6.0,11.0,98,-99.99,,,-99.99,,2013-01-27 12:52:00,
2013-01-27 05:01:00,47.0,46.0,-100.00,SW,219,5.0,9.0,98,-99.99,,,-99.99,,2013-01-27 13:01:00,
2013-01-27 05:11:00,47.0,46.0,-100.00,SW,216,8.0,15.0,98,-99.99,,,-99.99,,2013-01-27 13:11:00,
2013-01-27 05:22:00,47.0,46.0,-100.00,SW,216,6.0,11.0,98,-99.99,,,-99.99,,2013-01-27 13:22:00,
2013-01-27 05:31:00,47.0,46.0,-100.00,SSW,205,6.0,11.0,98,-99.99,,,-99.99,,2013-01-27 13:31:00,
2013-01-27 05:41:00,47.0,46.0,-100.00,WSW,237,6.0,9.0,98,-99.99,,,-99.99,,2013-01-27 13:41:00,
2013-01-27 05:52:00,47.0,46.0,-100.00,WSW,239,6.0,9.0,98,-99.99,,,-99.99,,2013-01-27 13:52:00,
2013-01-27 06:01:00,47.0,46.0,-100.00,SW,234,8.0,15.0,98,-99.99,,,-99.99,,2013-01-27 14:01:00,
2013-01-27 06:11:00,47.0,46.0,-100.00,WSW,238,7.0,12.0,98,-99.99,,,-99.99,,2013-01-27 14:11:00,
2013-01-27 06:21:00,47.0,46.0,-100.00,SW,227,6.0,10.0,98,-99.99,,,-99.99,,2013-01-27 14:21:00,
2013-01-27 06:31:00,47.0,46.0,-100.00,SW,233,6.0,13.0,98,-99.99,,,-99.99,,2013-01-27 14:31:00,
2013-01-27 06:42:00,47.0,46.0,-100.00,SW,224,8.0,12.0,98,-99.99,,,-99.99,,2013-01-27 14:42:00,
2013-01-27 06:52:00,46.0,45.0,-100.00,SW,226,6.0,11.0,98,-99.99,,,-99.99,,2013-01-27 14:52:00,
2013-01-27 07:01:00,46.0,45.0,-100.00,SW,217,7.0,10.0,98,-99.99,,,-99.99,,2013-01-27 15:01:00,
2013-01-27 07:11:00,46.0,45.0,-100.00,SSW,209,6.0,11.0,98,-99.99,,,-99.99,,2013-01-27 15:11:00,
2013-01-27 07:21:00,46.0,45.0,-100.00,SSW,207,6.0,10.0,98,-99.99,,,-99.99,,2013-01-27 15:21:00,
2013-01-27 07:32:00,46.0,45.0,-100.00,SW,218,5.0,9.0,98,-99.99,,,-99.99,,2013-01-27 15:32:00,
2013-01-27 07:42:00,46.0,45.0,-100.00,SSW,203,6.0,10.0,98,-99.99,,,-99.99,,2013-01-27 15:42:00,
2013-01-27 07:52:00,46.0,45.0,-100.00,SW,223,6.0,10.0,98,-99.99,,,-99.99,,2013-01-27 15:52:00,
2013-01-27 08:01:00,46.0,45.0,-100.00,SSW,209,5.0,9.0,98,-99.99,,,-99.99,,2013-01-27 16:01:00,
2013-01-27 08:11:00,45.0,44.0,-100.00,SW,216,5.0,11.0,98,-99.99,,,-99.99,,2013-01-27 16:11:00,
2013-01-27 08:21:00,45.0,44.0,-100.00,SW,214,7.0,15.0,98,-99.99,,,-99.99,,2013-01-27 16:21:00,
2013-01-27 08:32:00,45.0,44.0,-100.00,SW,222,5.0,9.0,98,-99.99,,,-99.99,,2013-01-27 16:32:00,
2013-01-27 08:41:00,45.0,44.0,-100.00,SW,222,5.0,9.0,98,-99.99,,,-99.99,,2013-01-27 16:41:00,
2013-01-27 08:52:00,45.0,44.0,-100.00,SW,228,7.0,11.0,98,-99.99,,,-99.99,,2013-01-27 16:52:00,
2013-01-27 09:01:00,45.0,44.0,-100.00,SW,228,9.0,16.0,98,-99.99,,,-99.99,,2013-01-27 17:01:00,
2013-01-27 09:11:00,45.0,44.0,-100.00,SW,226,7.0,12.0,98,-99.99,,,-99.99,,2013-01-27 17:11:00,
2013-01-27 09:21:00,45.0,44.0,-100.00,SW,229,7.0,13.0,98,-99.99,,,-99.99,,2013-01-27 17:21:00,
2013-01-27 09:32:00,45.0,44.0,-100.00,SW,222,7.0,12.0,98,-99.99,,,-99.99,,2013-01-27 17:32:00,
2013-01-27 09:42:00,45.0,44.0,-100.00,SW,224,7.0,10.0,98,-99.99,,,-99.99,,2013-01-27 17:42:00,
2013-01-27 09:52:00,45.0,44.0,-100.00,SW,216,6.0,11.0,98,-99.99,,,-99.99,,2013-01-27 17:52:00,
2013-01-27 10:01:00,45.0,44.0,-100.00,SW,227,7.0,11.0,98,-99.99,,,-99.99,,2013-01-27 18:01:00,
2013-01-27 10:11:00,45.0,44.0,-100.00,SW,226,8.0,14.0,98,-99.99,,,-99.99,,2013-01-27 18:11:00,
2013-01-27 10:22:00,45.0,44.0,-100.00,SW,228,5.0,9.0,98,-99.99,,,-99.99,,2013-01-27 18:22:00,
2013-01-27 10:32:00,45.0,44.0,-100.00,SW,227,6.0,12.0,98,-99.99,,,-99.99,,2013-01-27 18:32:00,
2013-01-27 10:41:00,45.0,44.0,-100.00,SW,215,6.0,9.0,98,-99.99,,,-99.99,,2013-01-27 18:41:00,
2013-01-27 10:51:00,45.0,44.0,-100.00,SW,220,7.0,12.0,98,-99.99,,,-99.99,,2013-01-27 18:51:00,
2013-01-27 11:01:00,45.0,44.0,-100.00,SW,225,8.0,14.0,98,-99.99,,,-99.99,,2013-01-27 19:01:00,
2013-01-27 11:11:00,45.0,44.0,-100.00,SW,224,7.0,11.0,98,-99.99,,,-99.99,,2013-01-27 19:11:00,
2013-01-27 11:21:00,45.0,44.0,-100.00,WSW,239,6.0,13.0,98,-99.99,,,-99.99,,2013-01-27 19:21:00,
2013-01-27 11:32:00,44.0,43.0,-100.00,WSW,240,8.0,17.0,98,-99.99,,,-99.99,,2013-01-27 19:32:00,
2013-01-27 11:41:00,44.0,43.0,-100.00,WSW,240,7.0,15.0,98,-99.99,,,-99.99,,2013-01-27 19:41:00,
2013-01-27 11:51:00,44.0,43.0,-100.00,WSW,237,6.0,11.0,98,-99.99,,,-99.99,,2013-01-27 19:51:00,
2013-01-27 12:02:00,44.0,43.0,-100.00,SW,232,9.0,14.0,98,-99.99,,,-99.99,,2013-01-27 20:02:00,
2013-01-27 12:11:00,44.0,43.0,-100.00,SW,232,9.0,14.0,98,-99.99,,,-99.99,,2013-01-27 20:11:00,
2013-01-27 12:22:00,44.0,43.0,-100.00,SW,229,9.0,15.0,98,-99.99,,,-99.99,,2013-01-27 20:22:00,
2013-01-27 12:32:00,44.0,43.0,-100.00,SW,227,10.0,18.0,98,-99.99,,,-99.99,,2013-01-27 20:32:00,
2013-01-27 12:41:00,44.0,43.0,-100.00,SW,228,8.0,15.0,98,-99.99,,,-99.99,,2013-01-27 20:41:00,
2013-01-27 12:52:00,44.0,43.0,-100.00,SW,224,9.0,14.0,98,-99.99,,,-99.99,,2013-01-27 20:52:00,
2013-01-27 13:01:00,44.0,43.0,-100.00,SW,223,10.0,15.0,98,-99.99,,,-99.99,,2013-01-27 21:01:00,
2013-01-27 13:11:00,44.0,43.0,-100.00,SW,230,10.0,16.0,98,-99.99,,,-99.99,,2013-01-27 21:11:00,
2013-01-27 13:22:00,43.0,42.0,-100.00,SW,225,10.0,18.0,98,-99.99,,,-99.99,,2013-01-27 21:22:00,
2013-01-27 13:32:00,43.0,42.0,-100.00,SW,230,11.0,16.0,98,-99.99,,,-99.99,,2013-01-27 21:32:00,
2013-01-27 13:42:00,43.0,42.0,-100.00,SW,229,10.0,16.0,98,-99.99,,,-99.99,,2013-01-27 21:42:00,
2013-01-27 13:52:00,43.0,42.0,-100.00,SW,233,11.0,18.0,98,-99.99,,,-99.99,,2013-01-27 21:52:00,
2013-01-27 14:01:00,43.0,42.0,-100.00,SW,223,11.0,17.0,98,-99.99,,,-99.99,,2013-01-27 22:01:00,
2013-01-27 14:11:00,42.0,41.0,-100.00,SW,227,13.0,24.0,98,-99.99,,,-99.99,,2013-01-27 22:11:00,
2013-01-27 14:21:00,42.0,41.0,-100.00,SW,222,12.0,23.0,98,-99.99,,,-99.99,,2013-01-27 22:21:00,
2013-01-27 14:31:00,42.0,41.0,-100.00,SW,226,10.0,15.0,98,-99.99,,,-99.99,,2013-01-27 22:31:00,
2013-01-27 14:42:00,42.0,41.0,-100.00,SW,226,10.0,15.0,98,-99.99,,,-99.99,,2013-01-27 22:42:00,
2013-01-27 14:51:00,42.0,41.0,-100.00,SW,235,10.0,18.0,98,-99.99,,,-99.99,,2013-01-27 22:51:00,
2013-01-27 15:01:00,42.0,41.0,-100.00,SW,235,10.0,18.0,98,-99.99,,,-99.99,,2013-01-27 23:01:00,
2013-01-27 15:11:00,42.0,41.0,-100.00,SW,229,11.0,17.0,97,-99.99,,,-99.99,,2013-01-27 23:11:00,
2013-01-27 15:21:00,41.0,40.0,-100.00,SW,224,10.0,19.0,97,-99.99,,,-99.99,,2013-01-27 23:21:00,
2013-01-27 15:31:00,41.0,40.0,-100.00,SW,230,9.0,16.0,97,-99.99,,,-99.99,,2013-01-27 23:31:00,
2013-01-27 15:41:00,41.0,40.0,-100.00,SW,230,9.0,16.0,97,-99.99,,,-99.99,,2013-01-27 23:41:00,
2013-01-27 15:52:00,41.0,40.0,-100.00,SW,222,9.0,14.0,97,-99.99,,,-99.99,,2013-01-27 23:52:00,
2013-01-27 16:01:00,41.0,40.0,-100.00,SW,222,9.0,14.0,97,-99.99,,,-99.99,,2013-01-28 00:01:00,
2013-01-27 16:11:00,41.0,39.0,-100.00,SW,231,9.0,17.0,93,-99.99,,,-99.99,,2013-01-28 00:11:00,
2013-01-27 16:21:00,41.0,38.0,-100.00,SW,214,13.0,23.0,88,-99.99,,,-99.99,,2013-01-28 00:21:00,
2013-01-27 16:32:00,41.0,37.0,-100.00,SSW,213,10.0,17.0,86,-99.99,,,-99.99,,2013-01-28 00:32:00,
2013-01-27 16:41:00,41.0,37.0,-100.00,SSW,213,10.0,17.0,86,-99.99,,,-99.99,,2013-01-28 00:41:00,
2013-01-27 16:51:00,41.0,37.0,-100.00,SW,218,9.0,15.0,87,-99.99,,,-99.99,,2013-01-28 00:51:00,
2013-01-27 17:01:00,41.0,37.0,-100.00,SW,218,9.0,15.0,87,-99.99,,,-99.99,,2013-01-28 01:01:00,
2013-01-27 17:11:00,41.0,38.0,-100.00,SW,225,10.0,17.0,90,-99.99,,,-99.99,,2013-01-28 01:11:00,
2013-01-27 17:21:00,40.0,38.0,-100.00,SW,226,9.0,16.0,91,-99.99,,,-99.99,,2013-01-28 01:21:00,
2013-01-27 17:32:00,40.0,38.0,-100.00,SW,226,9.0,15.0,91,-99.99,,,-99.99,,2013-01-28 01:32:00,
2013-01-27 17:42:00,40.0,38.0,-100.00,SW,230,11.0,20.0,91,-99.99,,,-99.99,,2013-01-28 01:42:00,
2013-01-27 17:51:00,40.0,37.0,-100.00,SW,223,12.0,18.0,88,-99.99,,,-99.99,,2013-01-28 01:51:00,
2013-01-27 18:01:00,39.0,35.0,-100.00,SW,222,11.0,19.0,86,-99.99,,,-99.99,,2013-01-28 02:01:00,
2013-01-27 18:11:00,39.0,35.0,-100.00,SSW,206,10.0,17.0,84,-99.99,,,-99.99,,2013-01-28 02:11:00,
2013-01-27 18:21:00,39.0,35.0,-100.00,SSW,204,7.0,13.0,86,-99.99,,,-99.99,,2013-01-28 02:21:00,
2013-01-27 18:32:00,39.0,35.0,-100.00,SW,217,7.0,14.0,87,-99.99,,,-99.99,,2013-01-28 02:32:00,
2013-01-27 18:41:00,39.0,36.0,-100.00,SW,219,6.0,10.0,88,-99.99,,,-99.99,,2013-01-28 02:41:00,
2013-01-27 18:52:00,39.0,36.0,-100.00,SW,222,9.0,14.0,89,-99.99,,,-99.99,,2013-01-28 02:52:00,
2013-01-27 19:01:00,39.0,36.0,-100.00,SW,219,11.0,18.0,90,-99.99,,,-99.99,,2013-01-28 03:01:00,
2013-01-27 19:11:00,39.0,37.0,-100.00,SW,218,13.0,21.0,92,-99.99,,,-99.99,,2013-01-28 03:11:00,
2013-01-27 19:21:00,38.0,36.0,-100.00,SW,218,12.0,22.0,93,-99.99,,,-99.99,,2013-01-28 03:21:00,
2013-01-27 19:32:00,38.0,36.0,-100.00,SW,216,13.0,21.0,91,-99.99,,,-99.99,,2013-01-28 03:32:00,
2013-01-27 19:41:00,38.0,35.0,-100.00,SW,220,11.0,18.0,90,-99.99,,,-99.99,,2013-01-28 03:41:00,
2013-01-27 19:52:00,38.0,35.0,-100.00,SW,215,9.0,17.0,90,-99.99,,,-99.99,,2013-01-28 03:52:00,
2013-01-27 20:01:00,38.0,35.0,-100.00,SSW,212,9.0,18.0,90,-99.99,,,-99.99,,2013-01-28 04:01:00,
2013-01-27 20:11:00,38.0,35.0,-100.00,SSW,212,8.0,14.0,89,-99.99,,,-99.99,,2013-01-28 04:11:00,
2013-01-27 20:21:00,38.0,35.0,-100.00,SSW,211,6.0,10.0,90,-99.99,,,-99.99,,2013-01-28 04:21:00,
2013-01-27 20:31:00,38.0,36.0,-100.00,SSW,213,10.0,17.0,91,-99.99,,,-99.99,,2013-01-28 04:31:00,
2013-01-27 20:41:00,38.0,36.0,-100.00,SSW,201,9.0,16.0,91,-99.99,,,-99.99,,2013-01-28 04:41:00,
2013-01-27 20:52:00,38.0,36.0,-100.00,SSW,208,6.0,12.0,92,-99.99,,,-99.99,,2013-01-28 04:52:00,
2013-01-27 21:03:00,38.0,36.0,-100.00,SSW,207,8.0,13.0,91,-99.99,,,-99.99,,2013-01-28 05:03:00,
2013-01-27 21:11:00,38.0,36.0,-100.00,SSW,206,8.0,17.0,92,-99.99,,,-99.99,,2013-01-28 05:11:00,
2013-01-27 21:21:00,38.0,36.0,-100.00,SSW,213,9.0,15.0,93,-99.99,,,-99.99,,2013-01-28 05:21:00,
2013-01-27 21:31:00,38.0,36.0,-100.00,SW,214,10.0,15.0,93,-99.99,,,-99.99,,2013-01-28 05:31:00,
2013-01-27 21:41:00,38.0,36.0,-100.00,SW,215,7.0,13.0,93,-99.99,,,-99.99,,2013-01-28 05:41:00,
2013-01-27 21:52:00,38.0,36.0,-100.00,SW,223,8.0,14.0,93,-99.99,,,-99.99,,2013-01-28 05:52:00,
2013-01-27 22:01:00,38.0,36.0,-100.00,SW,230,8.0,16.0,93,-99.99,,,-99.99,,2013-01-28 06:01:00,
2013-01-27 22:11:00,38.0,36.0,-100.00,SW,223,10.0,16.0,92,-99.99,,,-99.99,,2013-01-28 06:11:00,
2013-01-27 22:21:00,38.0,36.0,-100.00,SW,228,11.0,16.0,93,-99.99,,,-99.99,,2013-01-28 06:21:00,
2013-01-27 22:32:00,38.0,37.0,-100.00,WSW,238,11.0,17.0,95,-99.99,,,-99.99,,2013-01-28 06:32:00,
2013-01-27 22:42:00,38.0,37.0,-100.00,SW,234,11.0,20.0,95,-99.99,,,-99.99,,2013-01-28 06:42:00,
2013-01-27 22:52:00,37.0,36.0,-100.00,SW,223,13.0,20.0,95,-99.99,,,-99.99,,2013-01-28 06:52:00,
2013-01-27 23:02:00,37.0,36.0,-100.00,SW,218,10.0,15.0,95,-99.99,,,-99.99,,2013-01-28 07:02:00,
2013-01-27 23:11:00,37.0,36.0,-100.00,SSW,213,10.0,18.0,95,-99.99,,,-99.99,,2013-01-28 07:11:00,
2013-01-27 23:21:00,37.0,36.0,-100.00,SW,216,11.0,16.0,95,-99.99,,,-99.99,,2013-01-28 07:21:00,
2013-01-27 23:31:00,37.0,35.0,-100.00,SSW,198,9.0,16.0,94,-99.99,,,-99.99,,2013-01-28 07:31:00,
2013-01-27 23:41:00,37.0,35.0,-100.00,SSW,200,10.0,17.0,94,-99.99,,,-99.99,,2013-01-28 07:41:00,
2013-01-27 23:51:00,37.0,35.0,-100.00,SSW,211,10.0,17.0,94,-99.99,,,-99.99,,2013-01-28 07:51:00,